createdAt,value
2022-12-13T03:50:29.529Z,-1.71
2022-12-13T03:53:03.810Z,-1.72
2022-12-13T03:55:31.019Z,-1.68
2022-12-13T03:58:00.839Z,-1.66
2022-12-13T04:00:30.519Z,-1.74
2022-12-13T04:02:57.694Z,-1.76
2022-12-13T04:05:24.958Z,-1.76
2022-12-13T04:07:52.135Z,-1.74
2022-12-13T04:10:27.795Z,-1.77
2022-12-13T04:13:13.246Z,-1.68
2022-12-13T04:15:40.587Z,-1.73
2022-12-13T04:18:07.779Z,-1.72
2022-12-13T04:20:34.922Z,-1.75
2022-12-13T04:23:10.434Z,-1.71
2022-12-13T04:25:38.578Z,-1.64
2022-12-13T04:28:06.305Z,-1.62
2022-12-13T04:30:34.237Z,-1.69
2022-12-13T04:33:01.711Z,-1.70
2022-12-13T04:44:28.325Z,-1.64
2022-12-13T04:46:55.321Z,-1.61
2022-12-13T04:49:29.993Z,-1.56
2022-12-13T04:52:01.225Z,-1.52
2022-12-13T04:58:40.448Z,-1.41
2022-12-13T06:10:10.269Z,-1.54
2022-12-13T06:57:59.524Z,-1.56
2022-12-13T07:00:35.643Z,-1.54
2022-12-13T07:03:06.581Z,-1.53
2022-12-13T07:05:33.819Z,-1.47
2022-12-13T07:08:01.044Z,-1.49
2022-12-13T07:10:28.207Z,-1.48
2022-12-13T07:12:55.335Z,-1.50
2022-12-13T07:15:22.747Z,-1.49
2022-12-13T07:17:51.693Z,-1.55
2022-12-13T07:20:20.119Z,-1.59
2022-12-13T07:22:55.104Z,-1.61
2022-12-13T07:25:28.591Z,-1.59
2022-12-13T07:28:02.428Z,-1.64
2022-12-13T07:30:41.333Z,-1.64
2022-12-13T07:33:09.458Z,-1.66
2022-12-13T07:35:37.492Z,-1.66
2022-12-13T07:38:08.787Z,-1.71
2022-12-13T07:40:39.645Z,-1.77
2022-12-13T07:43:07.156Z,-1.82
2022-12-13T07:45:34.314Z,-1.83
2022-12-13T07:48:05.300Z,-1.87
2022-12-13T07:50:36.837Z,-1.89
2022-12-13T07:53:06.996Z,-1.92
2022-12-13T07:55:35.018Z,-1.84
2022-12-13T07:58:05.984Z,-1.88
2022-12-13T08:00:33.243Z,-1.92
2022-12-13T08:03:01.389Z,-1.91
2022-12-13T08:05:29.152Z,-1.82
2022-12-13T08:08:07.325Z,-1.75
2022-12-13T08:10:34.517Z,-1.84
2022-12-13T08:13:03.026Z,-1.87
2022-12-13T08:15:30.424Z,-1.86
2022-12-13T08:17:58.084Z,-1.74
2022-12-13T08:20:25.339Z,-1.74
2022-12-13T08:23:01.857Z,-1.80
2022-12-13T08:25:30.468Z,-1.82
2022-12-13T08:28:02.143Z,-1.87
2022-12-13T08:30:31.296Z,-1.82
2022-12-13T08:32:58.485Z,-1.84
2022-12-13T08:35:33.768Z,-1.90
2022-12-13T08:38:01.583Z,-1.93
2022-12-13T08:40:28.961Z,-1.91
2022-12-13T08:42:56.142Z,-1.91
2022-12-13T08:45:32.043Z,-1.88
2022-12-13T08:47:59.815Z,-1.78
2022-12-13T08:50:28.006Z,-1.79
2022-12-13T08:52:55.165Z,-1.80
2022-12-13T08:55:31.341Z,-1.77
2022-12-13T08:58:01.091Z,-1.84
2022-12-13T09:00:28.556Z,-1.82
2022-12-13T09:03:09.920Z,-1.85
2022-12-13T09:05:37.983Z,-1.77
2022-12-13T09:08:23.511Z,-1.76
2022-12-13T09:11:00.532Z,-1.80
2022-12-13T09:13:33.095Z,-1.82
2022-12-13T09:16:14.229Z,-1.84
2022-12-13T09:18:54.837Z,-1.82
2022-12-13T09:21:31.889Z,-1.77
2022-12-13T09:24:02.019Z,-1.83
2022-12-13T09:26:29.523Z,-1.75
2022-12-13T09:29:10.362Z,-1.73
2022-12-13T09:31:40.363Z,-1.68
2022-12-13T09:34:08.766Z,-1.63
2022-12-13T09:36:35.890Z,-1.61
2022-12-13T09:39:03.841Z,-1.48
2022-12-13T09:41:41.398Z,-1.55
2022-12-13T09:44:43.714Z,-1.56
2022-12-13T09:47:22.847Z,-1.59
2022-12-13T09:49:51.783Z,-1.60
2022-12-13T09:52:22.778Z,-1.63
2022-12-13T09:54:57.242Z,-1.64
2022-12-13T09:57:31.460Z,-1.64
2022-12-13T10:00:04.620Z,-1.67
2022-12-13T10:02:33.893Z,-1.72
2022-12-13T10:05:22.926Z,-1.62
2022-12-13T10:07:53.116Z,-1.62
2022-12-13T10:10:20.419Z,-1.66
2022-12-13T10:13:00.591Z,-1.64
2022-12-13T10:15:28.228Z,-1.57
2022-12-13T10:17:56.395Z,-1.46
2022-12-13T10:20:26.038Z,-1.46
2022-12-13T10:23:30.008Z,-1.47
2022-12-13T10:25:51.110Z,-1.57
2022-12-13T10:28:26.712Z,-1.54
2022-12-13T10:30:54.086Z,-1.50
2022-12-13T10:33:26.139Z,-1.47
2022-12-13T10:36:07.701Z,-1.47
2022-12-13T10:38:40.934Z,-1.45
2022-12-13T10:41:26.450Z,-1.41
2022-12-13T10:44:13.389Z,-1.36
2022-12-13T10:46:42.407Z,-1.41
2022-12-13T10:49:18.158Z,-1.49
2022-12-13T10:51:45.239Z,-1.47
2022-12-13T10:54:26.733Z,-1.46
2022-12-13T10:56:59.892Z,-1.37
2022-12-13T10:59:35.754Z,-1.36
2022-12-13T11:02:28.824Z,-1.36
2022-12-13T11:04:58.236Z,-1.36
2022-12-13T11:07:30.864Z,-1.40
2022-12-13T11:10:27.553Z,-1.37
2022-12-13T11:13:01.875Z,-1.25
2022-12-13T11:15:30.989Z,-1.15
2022-12-13T11:18:01.357Z,-1.19
2022-12-13T11:20:31.975Z,-1.30
2022-12-13T11:23:22.779Z,-1.38
2022-12-13T11:25:55.403Z,-1.40
2022-12-13T11:28:41.400Z,-1.38
2022-12-13T11:31:27.561Z,-1.42
2022-12-13T11:34:27.035Z,-1.46
2022-12-13T11:37:29.064Z,-1.35
2022-12-13T11:40:10.647Z,-1.44
2022-12-13T11:42:53.256Z,-1.46
2022-12-13T11:45:30.178Z,-1.41
2022-12-13T11:48:09.183Z,-1.41
2022-12-13T11:50:39.003Z,-1.39
2022-12-13T11:53:20.600Z,-1.35
2022-12-13T11:55:54.680Z,-1.34
2022-12-13T11:59:03.677Z,-1.36
2022-12-13T12:01:32.830Z,-1.37
2022-12-13T12:04:31.610Z,-1.35
2022-12-13T12:07:31.307Z,-1.30
2022-12-13T12:10:49.860Z,-1.27
2022-12-13T12:13:24.900Z,-1.28
2022-12-13T12:16:05.981Z,-1.29
2022-12-13T12:18:33.360Z,-1.29
2022-12-13T12:21:16.873Z,-1.28
2022-12-13T12:24:07.456Z,-1.28
2022-12-13T12:26:44.243Z,-1.26
2022-12-13T12:29:28.737Z,-1.25
2022-12-13T12:44:49.173Z,-1.19
2022-12-13T13:14:01.916Z,-0.75
2022-12-13T15:02:30.058Z,-0.48
2022-12-13T15:05:00.907Z,-0.56
2022-12-13T15:33:35.219Z,-0.30
2022-12-13T15:57:53.447Z,-0.30
2022-12-13T19:47:18.015Z,-2.92
2022-12-13T20:29:26.101Z,-3.21
